sensor_id;sensor_type;location;lat;lon;timestamp;P1;durP1;ratioP1;P2;durP2;ratioP2
67839;SDS011;54636;51.684;5.142;2023-12-14T00:01:42;31.15;;;20.45;;
67839;SDS011;54636;51.684;5.142;2023-12-14T00:04:07;28.75;;;17.48;;
67839;SDS011;54636;51.684;5.142;2023-12-14T00:06:33;24.25;;;16.42;;
67839;SDS011;54636;51.684;5.142;2023-12-14T00:08:59;28.88;;;17.90;;
67839;SDS011;54636;51.684;5.142;2023-12-14T00:11:24;33.50;;;19.33;;
67839;SDS011;54636;51.684;5.142;2023-12-14T00:13:50;25.83;;;17.15;;
67839;SDS011;54636;51.684;5.142;2023-12-14T00:16:15;28.23;;;18.15;;
67839;SDS011;54636;51.684;5.142;2023-12-14T00:18:40;31.45;;;19.08;;
67839;SDS011;54636;51.684;5.142;2023-12-14T00:21:06;26.95;;;17.52;;
67839;SDS011;54636;51.684;5.142;2023-12-14T00:23:33;26.60;;;16.95;;
67839;SDS011;54636;51.684;5.142;2023-12-14T00:25:59;22.42;;;16.65;;
67839;SDS011;54636;51.684;5.142;2023-12-14T00:28:24;24.55;;;17.30;;
67839;SDS011;54636;51.684;5.142;2023-12-14T00:30:49;27.33;;;17.50;;
67839;SDS011;54636;51.684;5.142;2023-12-14T00:33:15;26.92;;;15.00;;
67839;SDS011;54636;51.684;5.142;2023-12-14T00:35:40;22.63;;;15.32;;
67839;SDS011;54636;51.684;5.142;2023-12-14T00:38:05;20.40;;;15.48;;
67839;SDS011;54636;51.684;5.142;2023-12-14T00:40:31;20.08;;;15.32;;
67839;SDS011;54636;51.684;5.142;2023-12-14T00:42:56;16.27;;;11.77;;
67839;SDS011;54636;51.684;5.142;2023-12-14T00:45:21;19.42;;;14.05;;
67839;SDS011;54636;51.684;5.142;2023-12-14T00:47:47;16.88;;;12.70;;
67839;SDS011;54636;51.684;5.142;2023-12-14T00:50:12;18.08;;;13.43;;
67839;SDS011;54636;51.684;5.142;2023-12-14T00:52:38;19.40;;;13.15;;
67839;SDS011;54636;51.684;5.142;2023-12-14T00:55:03;16.92;;;13.32;;
67839;SDS011;54636;51.684;5.142;2023-12-14T00:57:29;13.88;;;12.25;;
67839;SDS011;54636;51.684;5.142;2023-12-14T00:59:54;14.82;;;11.15;;
67839;SDS011;54636;51.684;5.142;2023-12-14T01:02:19;14.38;;;11.45;;
67839;SDS011;54636;51.684;5.142;2023-12-14T01:04:45;13.30;;;10.05;;
67839;SDS011;54636;51.684;5.142;2023-12-14T01:07:10;14.13;;;10.68;;
67839;SDS011;54636;51.684;5.142;2023-12-14T01:09:36;10.55;;;9.45;;
67839;SDS011;54636;51.684;5.142;2023-12-14T01:12:01;15.65;;;11.82;;
67839;SDS011;54636;51.684;5.142;2023-12-14T01:14:26;14.52;;;11.38;;
67839;SDS011;54636;51.684;5.142;2023-12-14T01:16:52;20.25;;;12.85;;
67839;SDS011;54636;51.684;5.142;2023-12-14T01:19:17;15.95;;;12.52;;
67839;SDS011;54636;51.684;5.142;2023-12-14T01:21:43;13.70;;;11.70;;
67839;SDS011;54636;51.684;5.142;2023-12-14T01:24:08;17.70;;;12.20;;
67839;SDS011;54636;51.684;5.142;2023-12-14T01:26:34;15.45;;;11.73;;
67839;SDS011;54636;51.684;5.142;2023-12-14T01:28:59;14.40;;;11.35;;
67839;SDS011;54636;51.684;5.142;2023-12-14T01:31:25;15.55;;;11.90;;
67839;SDS011;54636;51.684;5.142;2023-12-14T01:33:50;15.35;;;12.18;;
67839;SDS011;54636;51.684;5.142;2023-12-14T01:36:23;14.88;;;12.40;;
67839;SDS011;54636;51.684;5.142;2023-12-14T01:38:50;14.85;;;11.32;;
67839;SDS011;54636;51.684;5.142;2023-12-14T01:41:16;17.33;;;12.52;;
67839;SDS011;54636;51.684;5.142;2023-12-14T01:43:42;18.02;;;14.05;;
67839;SDS011;54636;51.684;5.142;2023-12-14T01:46:07;14.77;;;11.95;;
67839;SDS011;54636;51.684;5.142;2023-12-14T01:48:33;13.63;;;12.15;;
67839;SDS011;54636;51.684;5.142;2023-12-14T01:50:58;13.20;;;10.95;;
67839;SDS011;54636;51.684;5.142;2023-12-14T01:53:23;14.13;;;11.25;;
67839;SDS011;54636;51.684;5.142;2023-12-14T01:55:49;12.38;;;11.15;;
67839;SDS011;54636;51.684;5.142;2023-12-14T01:58:14;18.02;;;12.30;;
67839;SDS011;54636;51.684;5.142;2023-12-14T02:00:52;15.95;;;11.40;;
67839;SDS011;54636;51.684;5.142;2023-12-14T02:03:20;13.45;;;11.13;;
67839;SDS011;54636;51.684;5.142;2023-12-14T02:05:45;17.77;;;11.52;;
67839;SDS011;54636;51.684;5.142;2023-12-14T02:08:11;13.70;;;11.18;;
67839;SDS011;54636;51.684;5.142;2023-12-14T02:10:36;12.15;;;10.73;;
67839;SDS011;54636;51.684;5.142;2023-12-14T02:13:02;13.27;;;9.82;;
67839;SDS011;54636;51.684;5.142;2023-12-14T02:15:27;11.85;;;10.65;;
67839;SDS011;54636;51.684;5.142;2023-12-14T02:17:53;14.48;;;11.65;;
67839;SDS011;54636;51.684;5.142;2023-12-14T02:20:18;19.00;;;12.25;;
67839;SDS011;54636;51.684;5.142;2023-12-14T02:25:19;19.25;;;12.35;;
67839;SDS011;54636;51.684;5.142;2023-12-14T02:27:45;15.68;;;12.80;;
67839;SDS011;54636;51.684;5.142;2023-12-14T02:30:11;17.50;;;12.77;;
67839;SDS011;54636;51.684;5.142;2023-12-14T02:32:38;14.00;;;12.55;;
67839;SDS011;54636;51.684;5.142;2023-12-14T02:35:04;17.02;;;12.75;;
67839;SDS011;54636;51.684;5.142;2023-12-14T02:37:30;16.63;;;12.82;;
67839;SDS011;54636;51.684;5.142;2023-12-14T02:39:55;16.08;;;12.55;;
67839;SDS011;54636;51.684;5.142;2023-12-14T02:42:20;14.52;;;12.30;;
67839;SDS011;54636;51.684;5.142;2023-12-14T02:44:46;15.50;;;13.90;;
67839;SDS011;54636;51.684;5.142;2023-12-14T02:47:12;11.70;;;10.43;;
67839;SDS011;54636;51.684;5.142;2023-12-14T02:49:37;14.18;;;12.43;;
67839;SDS011;54636;51.684;5.142;2023-12-14T02:52:03;13.10;;;11.15;;
67839;SDS011;54636;51.684;5.142;2023-12-14T02:54:28;13.55;;;12.35;;
67839;SDS011;54636;51.684;5.142;2023-12-14T02:56:54;14.10;;;11.27;;
67839;SDS011;54636;51.684;5.142;2023-12-14T02:59:19;12.00;;;10.80;;
67839;SDS011;54636;51.684;5.142;2023-12-14T03:01:44;13.23;;;11.93;;
67839;SDS011;54636;51.684;5.142;2023-12-14T03:04:10;13.80;;;11.40;;
67839;SDS011;54636;51.684;5.142;2023-12-14T03:06:35;14.02;;;12.63;;
67839;SDS011;54636;51.684;5.142;2023-12-14T03:09:00;14.93;;;11.32;;
67839;SDS011;54636;51.684;5.142;2023-12-14T03:11:26;12.85;;;11.65;;
67839;SDS011;54636;51.684;5.142;2023-12-14T03:13:51;14.25;;;12.85;;
67839;SDS011;54636;51.684;5.142;2023-12-14T03:16:17;14.82;;;12.20;;
67839;SDS011;54636;51.684;5.142;2023-12-14T03:18:44;14.80;;;12.75;;
67839;SDS011;54636;51.684;5.142;2023-12-14T03:21:09;13.32;;;11.93;;
67839;SDS011;54636;51.684;5.142;2023-12-14T03:23:35;13.05;;;11.75;;
67839;SDS011;54636;51.684;5.142;2023-12-14T03:26:01;9.82;;;8.80;;
67839;SDS011;54636;51.684;5.142;2023-12-14T03:28:27;13.70;;;12.27;;
67839;SDS011;54636;51.684;5.142;2023-12-14T03:30:52;12.95;;;11.60;;
67839;SDS011;54636;51.684;5.142;2023-12-14T03:33:18;14.85;;;13.43;;
67839;SDS011;54636;51.684;5.142;2023-12-14T03:35:44;13.25;;;12.00;;
67839;SDS011;54636;51.684;5.142;2023-12-14T03:38:11;14.13;;;12.73;;
67839;SDS011;54636;51.684;5.142;2023-12-14T03:40:38;14.00;;;12.60;;
67839;SDS011;54636;51.684;5.142;2023-12-14T03:43:03;14.10;;;12.65;;
67839;SDS011;54636;51.684;5.142;2023-12-14T03:45:29;14.25;;;12.73;;
67839;SDS011;54636;51.684;5.142;2023-12-14T03:47:54;12.98;;;11.70;;
67839;SDS011;54636;51.684;5.142;2023-12-14T03:50:20;14.77;;;13.00;;
67839;SDS011;54636;51.684;5.142;2023-12-14T03:52:45;14.13;;;12.63;;
67839;SDS011;54636;51.684;5.142;2023-12-14T03:55:11;15.00;;;12.38;;
67839;SDS011;54636;51.684;5.142;2023-12-14T03:57:36;15.02;;;13.63;;
67839;SDS011;54636;51.684;5.142;2023-12-14T04:00:02;14.15;;;12.70;;
67839;SDS011;54636;51.684;5.142;2023-12-14T04:02:27;14.52;;;12.27;;
67839;SDS011;54636;51.684;5.142;2023-12-14T04:04:53;13.35;;;11.98;;
67839;SDS011;54636;51.684;5.142;2023-12-14T04:07:19;13.88;;;12.40;;
67839;SDS011;54636;51.684;5.142;2023-12-14T04:09:44;13.88;;;12.50;;
67839;SDS011;54636;51.684;5.142;2023-12-14T04:12:10;15.52;;;13.02;;
67839;SDS011;54636;51.684;5.142;2023-12-14T04:14:36;14.48;;;12.18;;
67839;SDS011;54636;51.684;5.142;2023-12-14T04:17:01;15.02;;;11.65;;
67839;SDS011;54636;51.684;5.142;2023-12-14T04:19:27;13.63;;;12.23;;
67839;SDS011;54636;51.684;5.142;2023-12-14T04:21:52;13.38;;;12.05;;
67839;SDS011;54636;51.684;5.142;2023-12-14T04:24:18;14.40;;;12.30;;
67839;SDS011;54636;51.684;5.142;2023-12-14T04:26:43;12.50;;;11.20;;
67839;SDS011;54636;51.684;5.142;2023-12-14T04:29:08;13.68;;;12.30;;
67839;SDS011;54636;51.684;5.142;2023-12-14T04:31:34;13.68;;;12.35;;
67839;SDS011;54636;51.684;5.142;2023-12-14T04:34:00;15.05;;;13.50;;
67839;SDS011;54636;51.684;5.142;2023-12-14T04:36:25;14.80;;;13.40;;
67839;SDS011;54636;51.684;5.142;2023-12-14T04:38:51;17.58;;;13.30;;
67839;SDS011;54636;51.684;5.142;2023-12-14T04:41:16;11.20;;;10.15;;
67839;SDS011;54636;51.684;5.142;2023-12-14T04:43:41;14.52;;;13.10;;
67839;SDS011;54636;51.684;5.142;2023-12-14T04:46:07;12.93;;;10.95;;
67839;SDS011;54636;51.684;5.142;2023-12-14T04:48:32;13.15;;;11.95;;
67839;SDS011;54636;51.684;5.142;2023-12-14T04:51:01;14.82;;;13.27;;
67839;SDS011;54636;51.684;5.142;2023-12-14T04:53:26;13.70;;;12.38;;
67839;SDS011;54636;51.684;5.142;2023-12-14T04:55:51;14.88;;;12.27;;
67839;SDS011;54636;51.684;5.142;2023-12-14T04:58:17;12.82;;;11.63;;
67839;SDS011;54636;51.684;5.142;2023-12-14T05:00:42;13.63;;;12.18;;
67839;SDS011;54636;51.684;5.142;2023-12-14T05:03:08;13.77;;;12.38;;
67839;SDS011;54636;51.684;5.142;2023-12-14T05:05:33;15.50;;;11.77;;
67839;SDS011;54636;51.684;5.142;2023-12-14T05:07:59;14.23;;;12.63;;
67839;SDS011;54636;51.684;5.142;2023-12-14T05:10:24;15.75;;;11.88;;
67839;SDS011;54636;51.684;5.142;2023-12-14T05:12:49;13.02;;;11.10;;
67839;SDS011;54636;51.684;5.142;2023-12-14T05:15:15;17.75;;;12.48;;
67839;SDS011;54636;51.684;5.142;2023-12-14T05:17:40;14.73;;;13.23;;
67839;SDS011;54636;51.684;5.142;2023-12-14T05:20:09;15.75;;;12.38;;
67839;SDS011;54636;51.684;5.142;2023-12-14T05:22:34;13.90;;;12.50;;
67839;SDS011;54636;51.684;5.142;2023-12-14T05:25:00;13.82;;;12.43;;
67839;SDS011;54636;51.684;5.142;2023-12-14T05:27:25;14.70;;;13.02;;
67839;SDS011;54636;51.684;5.142;2023-12-14T05:29:51;14.70;;;11.82;;
67839;SDS011;54636;51.684;5.142;2023-12-14T05:32:16;15.98;;;13.23;;
67839;SDS011;54636;51.684;5.142;2023-12-14T05:34:42;15.70;;;13.10;;
67839;SDS011;54636;51.684;5.142;2023-12-14T05:37:07;20.58;;;15.20;;
67839;SDS011;54636;51.684;5.142;2023-12-14T05:39:32;16.10;;;12.82;;
67839;SDS011;54636;51.684;5.142;2023-12-14T05:41:58;18.08;;;12.73;;
67839;SDS011;54636;51.684;5.142;2023-12-14T05:44:24;16.42;;;12.75;;
67839;SDS011;54636;51.684;5.142;2023-12-14T05:46:50;15.77;;;12.60;;
67839;SDS011;54636;51.684;5.142;2023-12-14T05:49:15;18.38;;;13.50;;
67839;SDS011;54636;51.684;5.142;2023-12-14T05:51:40;15.50;;;12.32;;
67839;SDS011;54636;51.684;5.142;2023-12-14T05:54:06;22.85;;;12.98;;
67839;SDS011;54636;51.684;5.142;2023-12-14T05:56:31;15.55;;;10.75;;
67839;SDS011;54636;51.684;5.142;2023-12-14T05:58:57;18.73;;;11.88;;
67839;SDS011;54636;51.684;5.142;2023-12-14T06:01:23;16.20;;;11.65;;
67839;SDS011;54636;51.684;5.142;2023-12-14T06:03:49;16.98;;;12.52;;
67839;SDS011;54636;51.684;5.142;2023-12-14T06:06:14;11.98;;;10.57;;
67839;SDS011;54636;51.684;5.142;2023-12-14T06:08:40;18.55;;;12.50;;
67839;SDS011;54636;51.684;5.142;2023-12-14T06:11:06;14.73;;;10.93;;
67839;SDS011;54636;51.684;5.142;2023-12-14T06:13:32;16.23;;;11.30;;
67839;SDS011;54636;51.684;5.142;2023-12-14T06:15:58;15.73;;;11.27;;
67839;SDS011;54636;51.684;5.142;2023-12-14T06:18:23;17.35;;;10.95;;
67839;SDS011;54636;51.684;5.142;2023-12-14T06:20:49;15.00;;;10.45;;
67839;SDS011;54636;51.684;5.142;2023-12-14T06:23:14;14.55;;;10.85;;
67839;SDS011;54636;51.684;5.142;2023-12-14T06:25:39;17.50;;;10.57;;
67839;SDS011;54636;51.684;5.142;2023-12-14T06:28:05;15.90;;;9.52;;
67839;SDS011;54636;51.684;5.142;2023-12-14T06:30:30;15.52;;;9.25;;
67839;SDS011;54636;51.684;5.142;2023-12-14T06:32:56;16.90;;;9.73;;
67839;SDS011;54636;51.684;5.142;2023-12-14T06:35:21;11.25;;;8.18;;
67839;SDS011;54636;51.684;5.142;2023-12-14T06:37:47;15.93;;;9.02;;
67839;SDS011;54636;51.684;5.142;2023-12-14T06:40:12;10.35;;;7.82;;
67839;SDS011;54636;51.684;5.142;2023-12-14T06:42:38;12.98;;;8.85;;
67839;SDS011;54636;51.684;5.142;2023-12-14T06:45:04;17.02;;;9.68;;
67839;SDS011;54636;51.684;5.142;2023-12-14T06:47:30;11.35;;;8.85;;
67839;SDS011;54636;51.684;5.142;2023-12-14T06:49:55;10.20;;;8.63;;
67839;SDS011;54636;51.684;5.142;2023-12-14T06:52:22;8.98;;;8.10;;
67839;SDS011;54636;51.684;5.142;2023-12-14T06:54:48;8.40;;;7.60;;
67839;SDS011;54636;51.684;5.142;2023-12-14T06:57:13;9.15;;;7.80;;
67839;SDS011;54636;51.684;5.142;2023-12-14T06:59:38;9.43;;;8.02;;
67839;SDS011;54636;51.684;5.142;2023-12-14T07:02:04;8.55;;;7.75;;
67839;SDS011;54636;51.684;5.142;2023-12-14T07:04:29;9.70;;;8.02;;
67839;SDS011;54636;51.684;5.142;2023-12-14T07:06:55;11.15;;;8.23;;
67839;SDS011;54636;51.684;5.142;2023-12-14T07:09:20;8.98;;;7.95;;
67839;SDS011;54636;51.684;5.142;2023-12-14T07:11:45;12.88;;;8.38;;
67839;SDS011;54636;51.684;5.142;2023-12-14T07:14:11;7.82;;;7.10;;
67839;SDS011;54636;51.684;5.142;2023-12-14T07:16:39;10.40;;;8.05;;
67839;SDS011;54636;51.684;5.142;2023-12-14T07:19:05;10.57;;;7.57;;
67839;SDS011;54636;51.684;5.142;2023-12-14T07:21:30;9.30;;;7.97;;
67839;SDS011;54636;51.684;5.142;2023-12-14T07:23:56;10.27;;;7.93;;
67839;SDS011;54636;51.684;5.142;2023-12-14T07:26:21;12.48;;;8.10;;
67839;SDS011;54636;51.684;5.142;2023-12-14T07:28:46;12.25;;;7.93;;
67839;SDS011;54636;51.684;5.142;2023-12-14T07:31:12;10.48;;;7.80;;
67839;SDS011;54636;51.684;5.142;2023-12-14T07:33:37;8.65;;;7.85;;
67839;SDS011;54636;51.684;5.142;2023-12-14T07:36:03;8.77;;;7.82;;
67839;SDS011;54636;51.684;5.142;2023-12-14T07:38:30;10.35;;;8.68;;
67839;SDS011;54636;51.684;5.142;2023-12-14T07:40:55;8.30;;;7.60;;
67839;SDS011;54636;51.684;5.142;2023-12-14T07:43:21;10.25;;;7.80;;
67839;SDS011;54636;51.684;5.142;2023-12-14T07:45:47;9.60;;;8.50;;
67839;SDS011;54636;51.684;5.142;2023-12-14T07:48:13;8.98;;;7.88;;
67839;SDS011;54636;51.684;5.142;2023-12-14T07:50:38;9.98;;;8.20;;
67839;SDS011;54636;51.684;5.142;2023-12-14T07:53:04;11.38;;;8.90;;
67839;SDS011;54636;51.684;5.142;2023-12-14T07:55:29;8.93;;;7.90;;
67839;SDS011;54636;51.684;5.142;2023-12-14T07:57:55;8.65;;;7.45;;
67839;SDS011;54636;51.684;5.142;2023-12-14T08:00:21;8.48;;;7.68;;
67839;SDS011;54636;51.684;5.142;2023-12-14T08:02:46;10.55;;;7.75;;
67839;SDS011;54636;51.684;5.142;2023-12-14T08:05:11;9.52;;;7.63;;
67839;SDS011;54636;51.684;5.142;2023-12-14T08:07:37;8.02;;;7.22;;
67839;SDS011;54636;51.684;5.142;2023-12-14T08:10:02;8.93;;;7.40;;
67839;SDS011;54636;51.684;5.142;2023-12-14T08:12:28;9.15;;;8.13;;
67839;SDS011;54636;51.684;5.142;2023-12-14T08:14:54;8.85;;;7.78;;
67839;SDS011;54636;51.684;5.142;2023-12-14T08:17:19;11.10;;;7.63;;
67839;SDS011;54636;51.684;5.142;2023-12-14T08:19:45;11.05;;;7.70;;
67839;SDS011;54636;51.684;5.142;2023-12-14T08:22:11;9.20;;;8.30;;
67839;SDS011;54636;51.684;5.142;2023-12-14T08:24:40;8.55;;;7.47;;
67839;SDS011;54636;51.684;5.142;2023-12-14T08:27:06;8.50;;;7.72;;
67839;SDS011;54636;51.684;5.142;2023-12-14T08:29:32;9.02;;;7.85;;
67839;SDS011;54636;51.684;5.142;2023-12-14T08:31:57;7.03;;;6.38;;
67839;SDS011;54636;51.684;5.142;2023-12-14T08:34:24;9.10;;;7.80;;
67839;SDS011;54636;51.684;5.142;2023-12-14T08:36:50;12.38;;;7.35;;
67839;SDS011;54636;51.684;5.142;2023-12-14T08:39:15;9.38;;;8.40;;
67839;SDS011;54636;51.684;5.142;2023-12-14T08:41:41;8.27;;;7.47;;
67839;SDS011;54636;51.684;5.142;2023-12-14T08:44:07;8.45;;;7.70;;
67839;SDS011;54636;51.684;5.142;2023-12-14T08:46:40;9.63;;;8.63;;
67839;SDS011;54636;51.684;5.142;2023-12-14T08:49:06;10.23;;;8.20;;
67839;SDS011;54636;51.684;5.142;2023-12-14T08:51:32;7.90;;;7.13;;
67839;SDS011;54636;51.684;5.142;2023-12-14T08:53:57;9.40;;;8.15;;
67839;SDS011;54636;51.684;5.142;2023-12-14T08:56:23;8.95;;;8.10;;
67839;SDS011;54636;51.684;5.142;2023-12-14T08:58:48;9.00;;;8.10;;
67839;SDS011;54636;51.684;5.142;2023-12-14T09:01:18;11.27;;;9.02;;
67839;SDS011;54636;51.684;5.142;2023-12-14T09:03:46;8.95;;;7.72;;
67839;SDS011;54636;51.684;5.142;2023-12-14T09:06:11;8.35;;;6.72;;
67839;SDS011;54636;51.684;5.142;2023-12-14T09:08:36;10.32;;;7.18;;
67839;SDS011;54636;51.684;5.142;2023-12-14T09:11:02;8.52;;;7.15;;
67839;SDS011;54636;51.684;5.142;2023-12-14T09:13:27;8.02;;;6.38;;
67839;SDS011;54636;51.684;5.142;2023-12-14T09:15:53;7.32;;;6.63;;
67839;SDS011;54636;51.684;5.142;2023-12-14T09:18:19;6.38;;;5.78;;
67839;SDS011;54636;51.684;5.142;2023-12-14T09:20:46;7.55;;;6.47;;
67839;SDS011;54636;51.684;5.142;2023-12-14T09:23:11;7.57;;;6.00;;
67839;SDS011;54636;51.684;5.142;2023-12-14T09:25:36;6.72;;;6.10;;
67839;SDS011;54636;51.684;5.142;2023-12-14T09:28:02;8.30;;;5.90;;
67839;SDS011;54636;51.684;5.142;2023-12-14T09:30:27;6.30;;;5.80;;
67839;SDS011;54636;51.684;5.142;2023-12-14T09:32:53;10.63;;;6.35;;
67839;SDS011;54636;51.684;5.142;2023-12-14T09:35:18;8.75;;;5.80;;
67839;SDS011;54636;51.684;5.142;2023-12-14T09:37:43;6.43;;;5.88;;
67839;SDS011;54636;51.684;5.142;2023-12-14T09:40:09;6.25;;;5.65;;
67839;SDS011;54636;51.684;5.142;2023-12-14T09:42:37;6.65;;;5.88;;
67839;SDS011;54636;51.684;5.142;2023-12-14T09:45:06;6.15;;;5.63;;
67839;SDS011;54636;51.684;5.142;2023-12-14T09:47:33;8.48;;;6.00;;
67839;SDS011;54636;51.684;5.142;2023-12-14T09:49:59;6.18;;;5.68;;
67839;SDS011;54636;51.684;5.142;2023-12-14T09:52:25;6.03;;;5.45;;
67839;SDS011;54636;51.684;5.142;2023-12-14T09:54:51;6.63;;;6.03;;
67839;SDS011;54636;51.684;5.142;2023-12-14T09:57:18;7.18;;;6.43;;
67839;SDS011;54636;51.684;5.142;2023-12-14T09:59:50;6.80;;;6.13;;
67839;SDS011;54636;51.684;5.142;2023-12-14T10:02:19;6.97;;;6.35;;
67839;SDS011;54636;51.684;5.142;2023-12-14T10:04:48;6.53;;;5.72;;
67839;SDS011;54636;51.684;5.142;2023-12-14T10:07:14;6.55;;;6.05;;
67839;SDS011;54636;51.684;5.142;2023-12-14T10:09:39;7.10;;;6.53;;
67839;SDS011;54636;51.684;5.142;2023-12-14T10:12:08;5.35;;;4.95;;
67839;SDS011;54636;51.684;5.142;2023-12-14T10:14:34;7.57;;;6.63;;
67839;SDS011;54636;51.684;5.142;2023-12-14T10:17:19;6.47;;;5.97;;
67839;SDS011;54636;51.684;5.142;2023-12-14T10:19:49;7.07;;;6.47;;
67839;SDS011;54636;51.684;5.142;2023-12-14T10:22:15;6.75;;;5.57;;
67839;SDS011;54636;51.684;5.142;2023-12-14T10:24:51;7.45;;;6.80;;
67839;SDS011;54636;51.684;5.142;2023-12-14T10:27:16;6.85;;;6.15;;
67839;SDS011;54636;51.684;5.142;2023-12-14T10:29:42;6.22;;;5.63;;
67839;SDS011;54636;51.684;5.142;2023-12-14T10:32:10;6.57;;;6.00;;
67839;SDS011;54636;51.684;5.142;2023-12-14T10:34:37;7.45;;;6.88;;
67839;SDS011;54636;51.684;5.142;2023-12-14T10:37:06;6.82;;;6.22;;
67839;SDS011;54636;51.684;5.142;2023-12-14T10:39:34;7.03;;;6.32;;
67839;SDS011;54636;51.684;5.142;2023-12-14T10:42:04;6.78;;;5.57;;
67839;SDS011;54636;51.684;5.142;2023-12-14T10:44:35;6.90;;;6.32;;
67839;SDS011;54636;51.684;5.142;2023-12-14T10:47:03;6.75;;;6.22;;
67839;SDS011;54636;51.684;5.142;2023-12-14T10:49:32;7.38;;;6.78;;
67839;SDS011;54636;51.684;5.142;2023-12-14T10:52:00;7.18;;;6.47;;
67839;SDS011;54636;51.684;5.142;2023-12-14T10:54:27;8.43;;;7.03;;
67839;SDS011;54636;51.684;5.142;2023-12-14T10:56:56;8.95;;;5.80;;
67839;SDS011;54636;51.684;5.142;2023-12-14T10:59:25;6.55;;;5.95;;
67839;SDS011;54636;51.684;5.142;2023-12-14T11:01:54;9.65;;;6.53;;
67839;SDS011;54636;51.684;5.142;2023-12-14T11:04:23;7.65;;;6.85;;
67839;SDS011;54636;51.684;5.142;2023-12-14T11:06:49;7.93;;;6.87;;
67839;SDS011;54636;51.684;5.142;2023-12-14T11:09:16;6.82;;;6.22;;
67839;SDS011;54636;51.684;5.142;2023-12-14T11:14:18;7.00;;;6.05;;
67839;SDS011;54636;51.684;5.142;2023-12-14T11:16:45;6.35;;;5.95;;
67839;SDS011;54636;51.684;5.142;2023-12-14T11:22:11;7.80;;;7.10;;
67839;SDS011;54636;51.684;5.142;2023-12-14T11:24:52;10.05;;;7.03;;
67839;SDS011;54636;51.684;5.142;2023-12-14T11:27:22;8.27;;;6.95;;
67839;SDS011;54636;51.684;5.142;2023-12-14T11:29:52;7.88;;;7.10;;
67839;SDS011;54636;51.684;5.142;2023-12-14T11:32:18;6.70;;;6.20;;
67839;SDS011;54636;51.684;5.142;2023-12-14T11:34:45;8.40;;;7.05;;
67839;SDS011;54636;51.684;5.142;2023-12-14T11:37:12;7.50;;;6.90;;
67839;SDS011;54636;51.684;5.142;2023-12-14T11:39:37;7.38;;;6.75;;
67839;SDS011;54636;51.684;5.142;2023-12-14T11:42:04;7.55;;;6.30;;
67839;SDS011;54636;51.684;5.142;2023-12-14T11:44:32;6.95;;;6.30;;
67839;SDS011;54636;51.684;5.142;2023-12-14T11:46:57;7.93;;;7.00;;
67839;SDS011;54636;51.684;5.142;2023-12-14T11:49:26;7.55;;;6.60;;
67839;SDS011;54636;51.684;5.142;2023-12-14T11:51:52;7.65;;;6.28;;
67839;SDS011;54636;51.684;5.142;2023-12-14T11:54:19;6.93;;;6.28;;
67839;SDS011;54636;51.684;5.142;2023-12-14T11:56:49;9.52;;;6.57;;
67839;SDS011;54636;51.684;5.142;2023-12-14T11:59:15;7.72;;;6.80;;
67839;SDS011;54636;51.684;5.142;2023-12-14T12:01:55;7.50;;;6.95;;
67839;SDS011;54636;51.684;5.142;2023-12-14T12:04:22;6.40;;;5.90;;
67839;SDS011;54636;51.684;5.142;2023-12-14T12:06:48;8.15;;;5.22;;
67839;SDS011;54636;51.684;5.142;2023-12-14T12:09:14;6.70;;;6.15;;
67839;SDS011;54636;51.684;5.142;2023-12-14T12:11:58;6.90;;;6.30;;
67839;SDS011;54636;51.684;5.142;2023-12-14T12:14:23;7.85;;;6.25;;
67839;SDS011;54636;51.684;5.142;2023-12-14T12:16:49;6.68;;;6.03;;
67839;SDS011;54636;51.684;5.142;2023-12-14T12:19:16;8.80;;;6.10;;
67839;SDS011;54636;51.684;5.142;2023-12-14T12:21:42;6.45;;;5.85;;
67839;SDS011;54636;51.684;5.142;2023-12-14T12:24:07;6.93;;;6.22;;
67839;SDS011;54636;51.684;5.142;2023-12-14T12:26:32;6.57;;;5.97;;
67839;SDS011;54636;51.684;5.142;2023-12-14T12:28:58;6.95;;;6.30;;
67839;SDS011;54636;51.684;5.142;2023-12-14T12:31:23;11.25;;;6.13;;
67839;SDS011;54636;51.684;5.142;2023-12-14T12:33:48;7.82;;;6.07;;
67839;SDS011;54636;51.684;5.142;2023-12-14T12:36:14;6.40;;;5.90;;
67839;SDS011;54636;51.684;5.142;2023-12-14T12:38:40;6.57;;;5.55;;
67839;SDS011;54636;51.684;5.142;2023-12-14T12:41:05;9.63;;;5.75;;
67839;SDS011;54636;51.684;5.142;2023-12-14T12:43:31;6.18;;;5.70;;
67839;SDS011;54636;51.684;5.142;2023-12-14T12:45:56;6.88;;;6.25;;
67839;SDS011;54636;51.684;5.142;2023-12-14T12:48:23;13.95;;;7.57;;
67839;SDS011;54636;51.684;5.142;2023-12-14T12:50:48;7.63;;;7.03;;
67839;SDS011;54636;51.684;5.142;2023-12-14T12:53:14;7.03;;;6.43;;
67839;SDS011;54636;51.684;5.142;2023-12-14T12:55:39;7.32;;;6.70;;
67839;SDS011;54636;51.684;5.142;2023-12-14T12:58:05;9.48;;;6.55;;
67839;SDS011;54636;51.684;5.142;2023-12-14T13:00:32;8.18;;;6.05;;
67839;SDS011;54636;51.684;5.142;2023-12-14T13:03:00;7.00;;;6.18;;
67839;SDS011;54636;51.684;5.142;2023-12-14T13:05:27;7.32;;;6.63;;
67839;SDS011;54636;51.684;5.142;2023-12-14T13:07:53;8.35;;;6.80;;
67839;SDS011;54636;51.684;5.142;2023-12-14T13:10:19;13.63;;;7.30;;
67839;SDS011;54636;51.684;5.142;2023-12-14T13:12:50;7.03;;;6.47;;
67839;SDS011;54636;51.684;5.142;2023-12-14T13:15:15;7.47;;;6.88;;
67839;SDS011;54636;51.684;5.142;2023-12-14T13:17:41;8.80;;;6.13;;
67839;SDS011;54636;51.684;5.142;2023-12-14T13:20:06;9.23;;;7.28;;
67839;SDS011;54636;51.684;5.142;2023-12-14T13:22:33;10.55;;;7.40;;
67839;SDS011;54636;51.684;5.142;2023-12-14T13:24:58;7.65;;;6.72;;
67839;SDS011;54636;51.684;5.142;2023-12-14T13:27:24;8.27;;;6.32;;
67839;SDS011;54636;51.684;5.142;2023-12-14T13:29:50;6.88;;;6.28;;
67839;SDS011;54636;51.684;5.142;2023-12-14T13:32:15;7.25;;;6.47;;
67839;SDS011;54636;51.684;5.142;2023-12-14T13:34:41;7.97;;;6.03;;
67839;SDS011;54636;51.684;5.142;2023-12-14T13:37:06;7.78;;;6.88;;
67839;SDS011;54636;51.684;5.142;2023-12-14T13:39:34;6.80;;;6.20;;
67839;SDS011;54636;51.684;5.142;2023-12-14T13:42:03;7.15;;;6.43;;
67839;SDS011;54636;51.684;5.142;2023-12-14T13:44:31;7.78;;;6.97;;
67839;SDS011;54636;51.684;5.142;2023-12-14T13:46:59;7.95;;;7.07;;
67839;SDS011;54636;51.684;5.142;2023-12-14T13:49:28;5.97;;;5.37;;
67839;SDS011;54636;51.684;5.142;2023-12-14T13:51:54;8.38;;;6.75;;
67839;SDS011;54636;51.684;5.142;2023-12-14T13:54:19;7.65;;;6.85;;
67839;SDS011;54636;51.684;5.142;2023-12-14T13:56:44;14.18;;;6.95;;
67839;SDS011;54636;51.684;5.142;2023-12-14T13:59:10;10.52;;;7.07;;
67839;SDS011;54636;51.684;5.142;2023-12-14T14:01:35;8.63;;;6.93;;
67839;SDS011;54636;51.684;5.142;2023-12-14T14:04:01;9.63;;;7.13;;
67839;SDS011;54636;51.684;5.142;2023-12-14T14:06:26;8.38;;;7.13;;
67839;SDS011;54636;51.684;5.142;2023-12-14T14:08:52;8.10;;;7.47;;
67839;SDS011;54636;51.684;5.142;2023-12-14T14:11:18;8.27;;;7.38;;
67839;SDS011;54636;51.684;5.142;2023-12-14T14:13:44;8.73;;;7.85;;
67839;SDS011;54636;51.684;5.142;2023-12-14T14:16:10;10.13;;;7.65;;
67839;SDS011;54636;51.684;5.142;2023-12-14T14:18:35;8.82;;;7.85;;
67839;SDS011;54636;51.684;5.142;2023-12-14T14:21:01;8.75;;;7.78;;
67839;SDS011;54636;51.684;5.142;2023-12-14T14:23:26;11.98;;;7.70;;
67839;SDS011;54636;51.684;5.142;2023-12-14T14:25:52;13.32;;;7.95;;
67839;SDS011;54636;51.684;5.142;2023-12-14T14:28:21;12.55;;;7.15;;
67839;SDS011;54636;51.684;5.142;2023-12-14T14:30:47;18.38;;;8.27;;
67839;SDS011;54636;51.684;5.142;2023-12-14T14:33:13;9.50;;;7.55;;
67839;SDS011;54636;51.684;5.142;2023-12-14T14:38:08;9.13;;;7.05;;
67839;SDS011;54636;51.684;5.142;2023-12-14T14:40:34;9.45;;;7.40;;